createdAt,value
2023-02-25T00:02:12.432Z,9.63
2023-02-25T00:04:39.993Z,12.27
2023-02-25T00:07:06.425Z,13.13
2023-02-25T00:09:32.965Z,12.67
2023-02-25T00:12:00.336Z,12.27
2023-02-25T00:14:26.908Z,13.70
2023-02-25T00:16:55.179Z,14.53
2023-02-25T00:19:21.861Z,12.73
2023-02-25T00:21:48.374Z,10.90
2023-02-25T00:24:16.813Z,11.83
2023-02-25T00:26:43.855Z,10.30
2023-02-25T00:29:14.155Z,12.57
2023-02-25T00:31:40.759Z,10.50
2023-02-25T00:34:08.754Z,21.33
2023-02-25T00:36:35.469Z,14.53
2023-02-25T00:39:01.952Z,31.97
2023-02-25T00:41:30.108Z,14.67
2023-02-25T00:43:59.049Z,12.27
2023-02-25T00:46:27.258Z,14.93
2023-02-25T00:48:53.843Z,11.47
2023-02-25T00:51:24.038Z,11.60
2023-02-25T00:53:50.969Z,9.97
2023-02-25T00:56:19.325Z,9.60
2023-02-25T00:58:47.933Z,9.87
2023-02-25T01:01:20.151Z,11.17
2023-02-25T01:03:48.339Z,12.63
2023-02-25T01:06:15.871Z,11.87
2023-02-25T01:08:43.080Z,11.70
2023-02-25T01:11:15.503Z,7.77
2023-02-25T01:13:42.605Z,10.17
2023-02-25T01:16:14.099Z,8.03
2023-02-25T01:18:41.308Z,8.87
2023-02-25T01:21:16.866Z,9.00
2023-02-25T01:23:43.943Z,7.40
2023-02-25T01:26:10.557Z,9.27
2023-02-25T01:28:38.037Z,7.57
2023-02-25T01:31:07.570Z,6.77
2023-02-25T01:33:37.652Z,6.50
2023-02-25T01:36:05.663Z,6.67
2023-02-25T01:38:32.917Z,5.43
2023-02-25T01:41:06.204Z,5.73
2023-02-25T01:43:32.616Z,6.83
2023-02-25T01:45:59.027Z,6.07
2023-02-25T01:48:30.012Z,5.90
2023-02-25T01:51:02.220Z,5.60
2023-02-25T01:53:33.036Z,5.33
2023-02-25T01:56:02.413Z,5.00
2023-02-25T01:58:30.008Z,5.47
2023-02-25T02:00:56.555Z,5.50
2023-02-25T02:03:24.903Z,5.60
2023-02-25T02:06:01.480Z,4.50
2023-02-25T02:08:28.552Z,4.17
2023-02-25T02:10:55.946Z,4.53
2023-02-25T02:13:23.442Z,4.93
2023-02-25T02:15:59.534Z,4.00
2023-02-25T02:18:31.401Z,3.50
2023-02-25T02:21:09.755Z,4.40
2023-02-25T02:24:15.612Z,4.37
2023-02-25T02:26:51.786Z,4.37
2023-02-25T02:29:55.192Z,4.73
2023-02-25T02:32:31.089Z,4.93
2023-02-25T02:35:04.770Z,4.40
2023-02-25T02:37:39.950Z,4.43
2023-02-25T02:40:21.689Z,3.87
2023-02-25T02:43:00.592Z,3.80
2023-02-25T02:45:33.889Z,3.83
2023-02-25T02:48:05.186Z,3.30
2023-02-25T02:50:36.386Z,2.83
2023-02-25T02:53:07.377Z,2.47
2023-02-25T02:55:38.751Z,2.40
2023-02-25T02:58:12.703Z,3.20
2023-02-25T03:00:42.506Z,2.97
2023-02-25T03:03:14.367Z,2.73
2023-02-25T03:05:44.231Z,3.30
2023-02-25T03:08:17.595Z,3.13
2023-02-25T03:10:44.687Z,3.63
2023-02-25T03:13:11.548Z,2.80
2023-02-25T03:15:40.219Z,2.47
2023-02-25T03:18:16.669Z,3.10
2023-02-25T03:20:46.478Z,2.53
2023-02-25T03:23:16.626Z,2.70
2023-02-25T03:25:47.853Z,2.10
2023-02-25T03:28:24.122Z,2.43
2023-02-25T03:30:56.342Z,2.30
2023-02-25T03:33:32.273Z,1.97
2023-02-25T03:36:01.012Z,1.93
2023-02-25T03:38:31.287Z,2.10
2023-02-25T03:41:01.203Z,2.67
2023-02-25T03:43:32.467Z,2.20
2023-02-25T03:45:59.935Z,2.70
2023-02-25T03:48:28.897Z,2.23
2023-02-25T03:50:59.972Z,2.70
2023-02-25T03:53:27.745Z,2.60
2023-02-25T03:56:04.673Z,2.50
2023-02-25T03:58:33.289Z,3.10
2023-02-25T04:01:03.424Z,3.30
2023-02-25T04:03:32.266Z,2.60
2023-02-25T04:05:59.130Z,2.60
2023-02-25T04:08:26.411Z,2.63
2023-02-25T04:10:52.857Z,3.03
2023-02-25T04:13:20.163Z,4.70
2023-02-25T04:15:48.540Z,2.57
2023-02-25T04:18:15.774Z,3.40
2023-02-25T04:20:43.148Z,3.27
2023-02-25T04:23:12.912Z,3.70
2023-02-25T04:25:39.374Z,3.87
2023-02-25T04:28:06.270Z,4.47
2023-02-25T04:30:34.381Z,3.30
2023-02-25T04:33:01.662Z,4.13
2023-02-25T04:35:28.091Z,3.73
2023-02-25T04:37:55.227Z,4.00
2023-02-25T04:40:23.355Z,4.10
2023-02-25T04:42:49.936Z,4.73
2023-02-25T04:45:16.922Z,4.40
2023-02-25T04:47:43.853Z,4.20
2023-02-25T04:50:11.984Z,4.47
2023-02-25T04:52:38.446Z,3.57
2023-02-25T04:55:09.007Z,4.40
2023-02-25T04:57:37.453Z,4.10
2023-02-25T05:00:09.417Z,5.50
2023-02-25T05:02:35.918Z,5.20
2023-02-25T05:05:04.897Z,4.63
2023-02-25T05:07:31.354Z,5.93
2023-02-25T05:09:57.859Z,6.03
2023-02-25T05:12:25.052Z,6.27
2023-02-25T05:14:51.437Z,6.10
2023-02-25T05:17:18.419Z,6.40
2023-02-25T05:19:44.809Z,6.33
2023-02-25T05:22:11.211Z,5.77
2023-02-25T05:24:38.394Z,7.23
2023-02-25T05:27:08.460Z,7.30
2023-02-25T05:29:35.775Z,6.00
2023-02-25T05:32:02.907Z,6.53
2023-02-25T05:34:29.585Z,8.13
2023-02-25T05:36:56.024Z,7.20
2023-02-25T05:39:22.418Z,7.13
2023-02-25T05:41:48.870Z,7.20
2023-02-25T05:44:15.686Z,7.27
2023-02-25T05:46:42.753Z,8.10
2023-02-25T05:49:09.766Z,8.53
2023-02-25T05:51:36.289Z,7.37
2023-02-25T05:54:03.109Z,7.40
2023-02-25T05:56:32.168Z,8.67
2023-02-25T05:58:58.955Z,6.53
2023-02-25T06:01:28.579Z,7.83
2023-02-25T06:03:57.729Z,7.87
2023-02-25T06:06:26.207Z,8.53
2023-02-25T06:08:53.305Z,7.93
2023-02-25T06:11:21.443Z,8.33
2023-02-25T06:13:48.906Z,10.63
2023-02-25T06:16:15.725Z,8.23
2023-02-25T06:18:42.499Z,5.77
2023-02-25T06:21:13.436Z,9.63
2023-02-25T06:23:41.493Z,9.07
2023-02-25T06:26:10.587Z,9.17
2023-02-25T06:28:37.754Z,10.67
2023-02-25T06:31:08.726Z,12.17
2023-02-25T06:33:35.271Z,8.97
2023-02-25T06:36:02.569Z,9.00
2023-02-25T06:38:29.670Z,9.50
2023-02-25T06:40:56.098Z,9.47
2023-02-25T06:43:22.779Z,10.20
2023-02-25T06:45:49.221Z,9.00
2023-02-25T06:48:15.739Z,13.37
2023-02-25T06:50:42.434Z,8.93
2023-02-25T06:53:09.111Z,9.67
2023-02-25T06:55:38.300Z,8.73
2023-02-25T06:58:04.759Z,8.90
2023-02-25T07:00:31.398Z,8.17
2023-02-25T07:02:57.855Z,9.20
2023-02-25T07:05:24.260Z,8.60
2023-02-25T07:07:50.864Z,9.17
2023-02-25T07:10:17.540Z,9.30
2023-02-25T07:12:44.591Z,8.40
2023-02-25T07:15:11.048Z,8.97
2023-02-25T07:17:37.737Z,8.83
2023-02-25T07:20:04.896Z,8.13
2023-02-25T07:22:31.408Z,8.13
2023-02-25T07:24:58.500Z,8.50
2023-02-25T07:27:25.001Z,8.17
2023-02-25T07:29:52.112Z,9.97
2023-02-25T07:32:18.701Z,8.70
2023-02-25T07:34:45.283Z,8.80
2023-02-25T07:37:12.301Z,10.00
2023-02-25T07:39:38.718Z,11.03
2023-02-25T07:42:06.435Z,11.87
2023-02-25T07:44:35.533Z,8.83
2023-02-25T07:47:02.832Z,8.17
2023-02-25T07:49:29.213Z,9.40
2023-02-25T07:51:55.660Z,9.10
2023-02-25T07:54:22.665Z,8.87
2023-02-25T07:56:50.656Z,8.60
2023-02-25T07:59:17.326Z,8.13
2023-02-25T08:01:43.803Z,8.17
2023-02-25T08:04:11.139Z,10.00
2023-02-25T08:06:39.835Z,8.03
2023-02-25T08:09:06.849Z,7.17
2023-02-25T08:11:33.370Z,8.23
2023-02-25T08:14:00.218Z,9.27
2023-02-25T08:16:26.873Z,8.20
2023-02-25T08:18:54.041Z,8.63
2023-02-25T08:21:22.952Z,11.10
2023-02-25T08:23:49.791Z,7.60
2023-02-25T08:26:17.173Z,19.67
2023-02-25T08:28:44.571Z,9.40
2023-02-25T08:31:11.855Z,8.50
2023-02-25T08:33:39.456Z,9.47
2023-02-25T08:36:08.871Z,8.53
2023-02-25T08:38:36.879Z,7.63
2023-02-25T08:41:03.549Z,8.43
2023-02-25T08:43:31.323Z,7.63
2023-02-25T08:45:58.321Z,9.37
2023-02-25T08:48:24.919Z,8.30
2023-02-25T08:50:51.614Z,8.47
2023-02-25T08:53:18.568Z,11.13
2023-02-25T08:55:46.578Z,11.23
2023-02-25T08:58:13.223Z,8.63
2023-02-25T09:00:40.150Z,8.07
2023-02-25T09:03:06.875Z,9.07
2023-02-25T09:05:33.482Z,8.40
2023-02-25T09:07:59.908Z,6.77
2023-02-25T09:10:26.320Z,8.40
2023-02-25T09:12:53.871Z,7.67
2023-02-25T09:15:21.055Z,6.87
2023-02-25T09:17:47.472Z,8.93
2023-02-25T09:20:17.307Z,7.10
2023-02-25T09:22:44.095Z,7.87
2023-02-25T09:25:10.622Z,6.03
2023-02-25T09:27:37.094Z,5.07
2023-02-25T09:30:05.505Z,6.90
2023-02-25T09:32:32.236Z,10.47
2023-02-25T09:35:05.767Z,5.60
2023-02-25T09:37:32.568Z,5.60
2023-02-25T09:39:59.115Z,8.43
2023-02-25T09:42:32.651Z,7.43
2023-02-25T09:45:03.785Z,7.17
2023-02-25T09:47:39.702Z,6.53
2023-02-25T09:50:12.104Z,5.20
2023-02-25T09:52:41.237Z,3.97
2023-02-25T09:55:17.541Z,6.43
2023-02-25T09:57:52.417Z,4.53
2023-02-25T10:00:24.861Z,5.30
2023-02-25T10:02:57.886Z,4.93
2023-02-25T10:05:32.538Z,6.60
2023-02-25T10:08:10.534Z,5.80
2023-02-25T10:10:45.987Z,5.73
2023-02-25T10:13:25.523Z,8.10
2023-02-25T10:16:01.949Z,5.60
2023-02-25T10:18:51.794Z,6.37
2023-02-25T10:21:29.985Z,4.03
2023-02-25T10:24:19.901Z,4.67
2023-02-25T10:26:50.093Z,5.50
2023-02-25T10:29:27.512Z,5.03
2023-02-25T10:31:58.864Z,5.07
2023-02-25T10:34:28.200Z,5.43
2023-02-25T10:36:56.718Z,5.20
2023-02-25T10:39:24.082Z,5.03
2023-02-25T10:41:50.810Z,5.00
2023-02-25T10:44:17.590Z,4.37
2023-02-25T10:46:53.745Z,4.00
2023-02-25T10:49:22.280Z,5.33
2023-02-25T10:51:57.641Z,6.60
2023-02-25T10:54:27.426Z,5.63
2023-02-25T10:56:54.713Z,5.73
2023-02-25T10:59:30.795Z,5.93
2023-02-25T11:01:59.311Z,5.27
2023-02-25T11:04:31.797Z,5.30
2023-02-25T11:06:58.928Z,7.40
2023-02-25T11:09:37.213Z,5.33
2023-02-25T11:12:17.436Z,4.37
2023-02-25T11:14:43.897Z,5.10
2023-02-25T11:17:15.014Z,5.23
2023-02-25T11:19:43.862Z,5.37
2023-02-25T11:22:17.782Z,6.23
2023-02-25T11:24:54.662Z,4.10
2023-02-25T11:27:31.743Z,5.47
2023-02-25T11:30:03.433Z,4.67
2023-02-25T11:32:32.578Z,4.93
2023-02-25T11:35:04.604Z,5.33
2023-02-25T11:37:37.195Z,4.17
2023-02-25T11:40:20.138Z,5.07
2023-02-25T11:43:00.840Z,4.30
2023-02-25T11:45:29.630Z,4.57
2023-02-25T11:47:57.059Z,6.27
2023-02-25T11:50:26.792Z,5.03
2023-02-25T11:53:01.699Z,5.13
2023-02-25T11:55:45.682Z,3.97
2023-02-25T11:58:22.485Z,6.23
2023-02-25T12:00:57.874Z,5.07
2023-02-25T12:03:48.328Z,4.60
2023-02-25T12:06:27.716Z,3.07
2023-02-25T12:09:19.716Z,4.37
2023-02-25T12:12:19.350Z,4.77
2023-02-25T12:15:19.460Z,3.43
2023-02-25T12:18:10.526Z,2.67
2023-02-25T12:21:25.400Z,6.00
2023-02-25T12:24:21.074Z,3.23
2023-02-25T12:27:16.384Z,4.07
2023-02-25T12:30:20.056Z,3.17
2023-02-25T12:32:59.114Z,5.10
2023-02-25T12:35:44.315Z,3.93
2023-02-25T12:38:52.445Z,3.33
2023-02-25T12:41:45.903Z,2.87
2023-02-25T12:44:40.063Z,3.07
2023-02-25T12:47:22.913Z,3.37
2023-02-25T12:50:07.859Z,2.50
2023-02-25T12:52:47.310Z,3.23
2023-02-25T12:55:45.959Z,4.10
2023-02-25T12:58:33.107Z,4.03
2023-02-25T13:01:12.732Z,3.57
2023-02-25T13:04:10.185Z,4.03
2023-02-25T13:07:06.520Z,2.67
2023-02-25T13:09:51.213Z,3.13
2023-02-25T13:12:33.619Z,4.00
2023-02-25T13:15:09.002Z,3.63
2023-02-25T13:17:56.222Z,2.33
2023-02-25T13:20:36.406Z,2.50
2023-02-25T13:23:21.905Z,1.30
2023-02-25T13:26:06.009Z,2.23
2023-02-25T13:28:55.778Z,2.03
2023-02-25T13:31:34.893Z,5.77
2023-02-25T13:34:13.998Z,2.73
2023-02-25T13:36:54.156Z,2.23
2023-02-25T13:39:54.664Z,2.70
2023-02-25T13:42:34.689Z,1.77
2023-02-25T13:45:33.376Z,1.50
2023-02-25T13:48:22.844Z,2.13
2023-02-25T13:51:02.751Z,2.80
2023-02-25T13:54:05.780Z,2.27
2023-02-25T13:56:51.023Z,3.20
2023-02-25T13:59:38.410Z,3.20
2023-02-25T14:02:26.430Z,1.70
2023-02-25T14:05:17.061Z,1.97
2023-02-25T14:08:00.576Z,2.33
2023-02-25T14:10:40.160Z,2.90
2023-02-25T14:13:30.825Z,1.67
2023-02-25T14:16:04.516Z,3.13
2023-02-25T14:18:52.848Z,2.47
2023-02-25T14:21:49.154Z,3.03
2023-02-25T14:24:22.152Z,2.13
2023-02-25T14:27:04.482Z,2.00
2023-02-25T14:29:42.446Z,2.77
2023-02-25T14:32:31.310Z,3.63
2023-02-25T14:35:25.933Z,1.87
2023-02-25T14:38:01.366Z,2.33
2023-02-25T14:40:31.890Z,1.70
2023-02-25T14:43:12.075Z,5.47
2023-02-25T14:45:44.203Z,3.93
2023-02-25T14:48:17.158Z,2.47
2023-02-25T14:50:48.468Z,2.27
2023-02-25T14:53:54.547Z,2.87
2023-02-25T14:56:48.089Z,2.53
2023-02-25T14:59:31.162Z,2.00
2023-02-25T15:02:29.515Z,2.67
2023-02-25T15:05:32.100Z,2.30
2023-02-25T15:08:20.900Z,1.80
2023-02-25T15:11:03.309Z,3.80
2023-02-25T15:14:03.358Z,2.50
2023-02-25T15:16:55.988Z,2.97
2023-02-25T15:19:47.647Z,2.40
2023-02-25T15:22:21.271Z,2.03
2023-02-25T15:24:48.601Z,2.80
2023-02-25T15:27:49.849Z,3.33
2023-02-25T15:30:19.172Z,4.90
2023-02-25T15:32:51.958Z,2.10
2023-02-25T15:35:21.657Z,2.37
2023-02-25T15:38:06.606Z,2.77
2023-02-25T15:40:48.930Z,3.03
2023-02-25T15:43:40.073Z,2.70
2023-02-25T15:46:37.348Z,2.60
2023-02-25T15:49:14.742Z,3.60
2023-02-25T15:51:44.222Z,1.93
2023-02-25T15:54:11.540Z,1.90
2023-02-25T15:56:57.239Z,2.63
2023-02-25T15:59:41.482Z,2.13
2023-02-25T16:02:41.102Z,2.33
2023-02-25T16:05:21.340Z,2.00
2023-02-25T16:07:51.054Z,1.80
2023-02-25T16:10:26.122Z,2.47
2023-02-25T16:12:55.410Z,3.23
2023-02-25T16:15:28.365Z,3.57
2023-02-25T16:17:57.256Z,2.00
2023-02-25T16:20:28.048Z,2.20
2023-02-25T16:22:58.520Z,1.60
2023-02-25T16:25:41.601Z,1.87
2023-02-25T16:28:19.889Z,4.30
2023-02-25T16:30:55.516Z,2.53
2023-02-25T16:33:31.586Z,1.90
2023-02-25T16:36:07.631Z,2.90
2023-02-25T16:38:45.196Z,2.40
2023-02-25T16:41:14.848Z,2.07
2023-02-25T16:43:43.947Z,3.73
2023-02-25T16:46:15.492Z,2.60
2023-02-25T16:48:49.546Z,3.10
2023-02-25T16:51:23.764Z,2.00
2023-02-25T16:53:55.226Z,2.43
2023-02-25T16:56:28.270Z,4.13
2023-02-25T16:59:00.333Z,2.70
2023-02-25T17:01:32.697Z,2.00
2023-02-25T17:04:13.890Z,2.00
2023-02-25T17:06:40.854Z,2.53
2023-02-25T17:09:21.997Z,2.87
2023-02-25T17:11:58.307Z,2.87
2023-02-25T17:14:25.242Z,1.90
2023-02-25T17:16:53.021Z,2.33
2023-02-25T17:19:23.571Z,3.53
2023-02-25T17:21:53.218Z,3.50
2023-02-25T17:24:26.523Z,2.50
2023-02-25T17:26:53.665Z,3.00
2023-02-25T17:29:20.912Z,2.90
2023-02-25T17:31:50.842Z,3.10
2023-02-25T17:34:22.259Z,3.03
2023-02-25T17:36:53.326Z,2.33
2023-02-25T17:39:20.605Z,4.67
2023-02-25T17:41:47.977Z,12.60
2023-02-25T17:44:44.377Z,3.37
2023-02-25T17:47:18.550Z,6.53
2023-02-25T17:49:46.482Z,2.50
2023-02-25T17:52:19.090Z,3.00
2023-02-25T17:54:47.811Z,2.97
2023-02-25T17:57:17.495Z,2.50
2023-02-25T17:59:50.195Z,4.23
2023-02-25T18:02:33.189Z,2.63
2023-02-25T18:05:21.586Z,5.47
2023-02-25T18:08:07.933Z,2.57
2023-02-25T18:10:54.427Z,3.30
2023-02-25T18:13:25.409Z,1.87
2023-02-25T18:16:40.196Z,1.77
2023-02-25T18:19:37.993Z,1.53
2023-02-25T18:22:07.928Z,1.10
2023-02-25T18:24:37.286Z,1.50
2023-02-25T18:27:19.311Z,1.60
2023-02-25T18:29:46.079Z,1.40
2023-02-25T18:32:13.036Z,1.40
2023-02-25T18:34:39.890Z,1.70
2023-02-25T18:37:09.496Z,3.70
2023-02-25T18:39:36.911Z,2.13
2023-02-25T18:42:04.546Z,1.97
2023-02-25T18:44:33.142Z,2.10
2023-02-25T18:46:59.710Z,1.80
2023-02-25T18:49:26.247Z,2.20
2023-02-25T18:51:53.062Z,2.07
2023-02-25T18:54:21.325Z,2.00
2023-02-25T18:56:47.751Z,2.00
2023-02-25T18:59:14.660Z,2.10
2023-02-25T19:01:42.795Z,3.43
2023-02-25T19:04:14.590Z,4.07
2023-02-25T19:06:41.097Z,3.10
2023-02-25T19:09:07.663Z,3.33
2023-02-25T19:11:37.191Z,2.80
2023-02-25T19:14:05.108Z,2.60
2023-02-25T19:16:31.875Z,3.93
2023-02-25T19:18:58.527Z,2.90
2023-02-25T19:21:25.009Z,6.20
2023-02-25T19:23:52.942Z,4.40
2023-02-25T19:26:19.912Z,3.57
2023-02-25T19:28:47.137Z,3.83
2023-02-25T19:31:14.071Z,5.27
2023-02-25T19:33:43.455Z,5.20
2023-02-25T19:36:11.242Z,5.47
2023-02-25T19:38:38.078Z,3.70
2023-02-25T19:41:05.835Z,3.57
2023-02-25T19:43:33.400Z,3.40
2023-02-25T19:46:00.685Z,3.80
2023-02-25T19:48:27.476Z,4.03
2023-02-25T19:50:54.696Z,6.23
2023-02-25T19:53:21.269Z,4.10
2023-02-25T19:55:47.944Z,4.40
2023-02-25T19:58:14.966Z,5.60
2023-02-25T20:00:46.786Z,3.77
2023-02-25T20:03:14.893Z,4.07
2023-02-25T20:05:41.796Z,3.40
2023-02-25T20:08:08.721Z,3.37
2023-02-25T20:10:35.254Z,5.17
2023-02-25T20:13:01.940Z,2.97
2023-02-25T20:15:28.419Z,3.43
2023-02-25T20:17:56.722Z,3.10
2023-02-25T20:20:24.534Z,4.63
2023-02-25T20:22:51.250Z,4.70
2023-02-25T20:25:18.598Z,5.03
2023-02-25T20:27:45.199Z,4.27
2023-02-25T20:30:14.036Z,4.00
2023-02-25T20:32:41.612Z,3.57
2023-02-25T20:35:15.107Z,3.37
2023-02-25T20:37:53.747Z,4.80
2023-02-25T20:40:20.504Z,3.37
2023-02-25T20:42:47.127Z,2.70
2023-02-25T20:45:15.048Z,2.90
2023-02-25T20:47:41.851Z,3.10
2023-02-25T20:50:10.216Z,3.83
2023-02-25T20:52:37.034Z,3.07
2023-02-25T20:55:06.735Z,3.40
2023-02-25T20:57:33.622Z,3.27
2023-02-25T21:00:01.342Z,2.93
2023-02-25T21:02:27.933Z,3.53
2023-02-25T21:04:54.447Z,4.80
2023-02-25T21:07:21.086Z,2.70
2023-02-25T21:09:47.931Z,4.03
2023-02-25T21:12:15.098Z,3.27
2023-02-25T21:14:41.542Z,3.30
2023-02-25T21:17:08.668Z,3.07
2023-02-25T21:19:36.567Z,3.10
2023-02-25T21:22:03.098Z,3.00
2023-02-25T21:24:32.901Z,3.10
2023-02-25T21:26:59.953Z,3.00
2023-02-25T21:29:27.193Z,3.03
2023-02-25T21:31:53.737Z,3.80
2023-02-25T21:34:20.381Z,2.93
2023-02-25T21:36:46.817Z,3.10
2023-02-25T21:39:13.422Z,3.13
2023-02-25T21:41:42.661Z,3.87
2023-02-25T21:44:11.423Z,4.43
2023-02-25T21:46:41.253Z,3.10
2023-02-25T21:49:09.750Z,3.20
2023-02-25T21:51:36.767Z,3.30
2023-02-25T21:54:05.975Z,2.93
2023-02-25T21:56:35.112Z,2.80
2023-02-25T21:59:05.018Z,2.97
2023-02-25T22:01:33.861Z,3.40
2023-02-25T22:04:01.469Z,5.47
2023-02-25T22:06:28.699Z,3.60
2023-02-25T22:08:56.329Z,3.73
2023-02-25T22:11:25.094Z,5.07
2023-02-25T22:13:52.036Z,5.03
2023-02-25T22:16:22.423Z,4.93
2023-02-25T22:18:49.624Z,5.37
2023-02-25T22:21:18.945Z,5.13
2023-02-25T22:23:47.572Z,6.03
2023-02-25T22:26:15.694Z,4.30
2023-02-25T22:28:43.745Z,5.00
2023-02-25T22:31:11.245Z,4.40
2023-02-25T22:33:38.909Z,5.37
2023-02-25T22:36:06.729Z,5.23
2023-02-25T22:38:36.211Z,6.17
2023-02-25T22:41:03.373Z,6.03
2023-02-25T22:43:30.438Z,5.27
2023-02-25T22:46:04.727Z,4.77
2023-02-25T22:48:31.328Z,5.97
2023-02-25T22:50:57.868Z,5.50
2023-02-25T22:53:24.306Z,4.87
2023-02-25T22:55:51.541Z,3.77
2023-02-25T22:58:17.978Z,3.10
2023-02-25T23:00:44.381Z,2.60
2023-02-25T23:03:11.148Z,2.40
2023-02-25T23:05:37.783Z,2.90
2023-02-25T23:08:08.146Z,2.80
2023-02-25T23:10:35.415Z,2.57
2023-02-25T23:13:07.294Z,2.40
2023-02-25T23:15:34.735Z,2.63
2023-02-25T23:18:02.858Z,3.07
2023-02-25T23:20:30.603Z,2.43
2023-02-25T23:23:02.885Z,2.43
2023-02-25T23:25:34.821Z,2.50
2023-02-25T23:28:03.841Z,2.90
2023-02-25T23:30:30.446Z,2.30
2023-02-25T23:32:57.302Z,2.40
2023-02-25T23:35:24.184Z,2.50
2023-02-25T23:37:50.800Z,2.20
2023-02-25T23:40:18.416Z,2.30
2023-02-25T23:42:45.612Z,2.40
2023-02-25T23:45:15.809Z,2.03
2023-02-25T23:47:42.886Z,2.83
2023-02-25T23:50:11.603Z,2.53
2023-02-25T23:52:38.444Z,3.43
2023-02-25T23:55:05.881Z,2.13
2023-02-25T23:57:32.691Z,2.90
2023-02-25T23:59:59.109Z,3.50
